createdAt,value
2018-08-25T00:00:32.507Z,18.91
2018-08-25T00:01:12.943Z,18.91
2018-08-25T00:01:53.377Z,18.96
2018-08-25T00:02:33.786Z,18.9
2018-08-25T00:03:14.183Z,18.87
2018-08-25T00:03:54.645Z,18.83
2018-08-25T00:04:35.070Z,18.91
2018-08-25T00:05:15.471Z,18.83
2018-08-25T00:05:55.971Z,18.86
2018-08-25T00:06:36.292Z,18.84
2018-08-25T00:07:16.719Z,18.69
2018-08-25T00:07:57.160Z,18.69
2018-08-25T00:08:37.521Z,18.75
2018-08-25T00:09:17.960Z,18.68
2018-08-25T00:09:58.401Z,18.68
2018-08-25T00:10:38.814Z,18.71
2018-08-25T00:11:19.312Z,18.64
2018-08-25T00:11:59.664Z,18.53
2018-08-25T00:12:40.107Z,18.59
2018-08-25T00:13:20.555Z,18.62
2018-08-25T00:14:00.917Z,18.6
2018-08-25T00:14:41.283Z,18.65
2018-08-25T00:15:21.743Z,18.57
2018-08-25T00:16:02.277Z,18.64
2018-08-25T00:16:42.674Z,18.65
2018-08-25T00:17:22.987Z,18.65
2018-08-25T00:18:03.377Z,18.68
2018-08-25T00:18:43.866Z,18.62
2018-08-25T00:19:24.265Z,18.62
2018-08-25T00:20:04.611Z,18.65
2018-08-25T00:22:01.337Z,18.71
2018-08-25T00:22:53.799Z,18.54
2018-08-25T00:23:46.428Z,18.56
2018-08-25T00:24:38.765Z,18.47
2018-08-25T00:25:31.032Z,18.54
2018-08-25T00:27:40.702Z,18.38
2018-08-25T00:28:33.382Z,18.39
2018-08-25T00:29:29.894Z,18.36
2018-08-25T00:30:24.669Z,18.34
2018-08-25T00:33:02.804Z,18.2
2018-08-25T00:34:00.142Z,18.09
2018-08-25T00:34:54.354Z,18.07
2018-08-25T00:37:22.123Z,18.14
2018-08-25T00:39:37.548Z,18.16
2018-08-25T00:40:30.796Z,18.26
2018-08-25T00:42:40.855Z,18.32
2018-08-25T00:43:20.710Z,18.23
2018-08-25T00:44:01.146Z,18.31
2018-08-25T00:44:41.719Z,18.31
2018-08-25T00:45:22.159Z,18.31
2018-08-25T00:46:02.499Z,18.34
2018-08-25T00:46:42.925Z,18.38
2018-08-25T00:47:23.267Z,18.23
2018-08-25T00:48:03.953Z,18.17
2018-08-25T00:48:44.269Z,18.29
2018-08-25T00:49:24.698Z,18.35
2018-08-25T00:50:05.080Z,18.34
2018-08-25T00:50:45.563Z,18.35
2018-08-25T00:51:26.091Z,18.38
2018-08-25T00:52:06.399Z,18.39
2018-08-25T00:52:46.811Z,18.47
2018-08-25T00:53:27.260Z,18.42
2018-08-25T00:54:07.605Z,18.5
2018-08-25T00:54:48.088Z,18.49
2018-08-25T00:55:28.523Z,18.51
2018-08-25T00:56:08.966Z,18.5
2018-08-25T00:56:49.289Z,18.53
2018-08-25T00:57:31.728Z,18.49
2018-08-25T00:58:12.092Z,18.6
2018-08-25T00:58:52.491Z,18.56
2018-08-25T00:59:33.269Z,18.56
2018-08-25T01:00:13.711Z,18.57
2018-08-25T01:00:53.971Z,18.54
2018-08-25T01:01:34.364Z,18.6
2018-08-25T01:02:14.787Z,18.6
2018-08-25T01:02:55.293Z,18.59
2018-08-25T01:03:35.599Z,18.59
2018-08-25T01:04:16.009Z,18.6
2018-08-25T01:04:56.415Z,18.6
2018-08-25T01:05:36.855Z,18.57
2018-08-25T01:06:17.331Z,18.57
2018-08-25T01:06:57.730Z,18.62
2018-08-25T01:07:38.191Z,18.53
2018-08-25T01:08:18.580Z,18.6
2018-08-25T01:08:58.949Z,18.59
2018-08-25T01:09:39.347Z,18.64
2018-08-25T01:10:19.724Z,18.6
2018-08-25T01:11:00.239Z,18.64
2018-08-25T01:11:40.563Z,18.54
2018-08-25T01:12:20.987Z,18.42
2018-08-25T01:13:01.390Z,18.53
2018-08-25T01:13:41.848Z,18.46
2018-08-25T01:14:22.269Z,18.41
2018-08-25T01:15:02.736Z,18.44
2018-08-25T01:15:43.149Z,18.39
2018-08-25T01:16:23.537Z,18.42
2018-08-25T01:17:03.965Z,18.44
2018-08-25T01:17:44.385Z,18.41
2018-08-25T01:18:24.802Z,18.35
2018-08-25T01:19:05.253Z,18.34
2018-08-25T01:19:45.638Z,18.29
2018-08-25T01:20:26.045Z,18.26
2018-08-25T01:21:06.396Z,18.31
2018-08-25T01:21:46.851Z,18.31
2018-08-25T01:22:27.242Z,18.39
2018-08-25T01:23:07.670Z,18.32
2018-08-25T01:23:48.071Z,18.31
2018-08-25T01:24:28.452Z,18.16
2018-08-25T01:25:08.935Z,18.14
2018-08-25T01:25:49.339Z,18.21
2018-08-25T01:26:29.719Z,18.13
2018-08-25T01:27:10.063Z,18.1
2018-08-25T01:27:50.652Z,18.07
2018-08-25T01:28:30.905Z,18.02
2018-08-25T01:29:11.295Z,17.92
2018-08-25T01:29:51.721Z,17.84
2018-08-25T01:30:32.189Z,17.8
2018-08-25T01:31:12.515Z,17.63
2018-08-25T01:31:52.952Z,17.54
2018-08-25T01:32:33.382Z,17.47
2018-08-25T01:33:13.777Z,17.38
2018-08-25T01:33:54.286Z,17.3
2018-08-25T01:34:34.731Z,17.24
2018-08-25T01:35:15.073Z,17.28
2018-08-25T01:35:55.529Z,17.28
2018-08-25T01:36:35.940Z,17.25
2018-08-25T01:37:16.325Z,17.3
2018-08-25T01:37:56.712Z,17.28
2018-08-25T01:38:37.103Z,17.2
2018-08-25T01:39:17.507Z,17.22
2018-08-25T01:39:57.925Z,17.22
2018-08-25T01:40:38.402Z,17.24
2018-08-25T01:41:18.840Z,17.12
2018-08-25T01:41:59.243Z,16.98
2018-08-25T01:42:39.572Z,17
2018-08-25T01:43:19.956Z,17.05
2018-08-25T01:44:00.388Z,16.9
2018-08-25T01:44:40.853Z,16.82
2018-08-25T01:45:21.187Z,16.82
2018-08-25T01:46:01.624Z,16.82
2018-08-25T01:46:42.099Z,16.82
2018-08-25T01:47:22.421Z,16.77
2018-08-25T01:48:02.929Z,16.77
2018-08-25T01:48:43.235Z,16.73
2018-08-25T01:49:23.697Z,16.63
2018-08-25T01:50:04.127Z,16.62
2018-08-25T01:50:44.541Z,16.54
2018-08-25T01:51:25.016Z,16.62
2018-08-25T01:52:05.345Z,16.55
2018-08-25T01:52:45.762Z,16.54
2018-08-25T01:53:26.169Z,16.51
2018-08-25T01:54:06.661Z,16.45
2018-08-25T01:54:47.076Z,16.5
2018-08-25T01:55:27.526Z,16.45
2018-08-25T01:56:07.910Z,16.48
2018-08-25T01:56:48.257Z,16.44
2018-08-25T01:57:28.676Z,16.5
2018-08-25T01:58:09.162Z,16.47
2018-08-25T01:58:49.586Z,16.37
2018-08-25T01:59:29.879Z,16.34
2018-08-25T02:00:10.302Z,16.37
2018-08-25T02:00:50.675Z,16.34
2018-08-25T02:01:31.092Z,16.4
2018-08-25T02:02:11.441Z,16.42
2018-08-25T02:02:52.121Z,16.34
2018-08-25T02:03:32.498Z,16.36
2018-08-25T02:04:13.081Z,16.34
2018-08-25T02:04:53.422Z,16.42
2018-08-25T02:05:33.897Z,16.32
2018-08-25T02:06:14.271Z,16.34
2018-08-25T02:06:54.740Z,16.42
2018-08-25T02:07:35.111Z,16.34
2018-08-25T02:08:15.565Z,16.4
2018-08-25T02:08:56.023Z,16.27
2018-08-25T02:09:36.495Z,16.29
2018-08-25T02:10:16.944Z,16.29
2018-08-25T02:10:57.393Z,16.16
2018-08-25T02:11:37.795Z,16.25
2018-08-25T02:12:18.190Z,16.29
2018-08-25T02:12:58.590Z,16.36
2018-08-25T02:13:39.045Z,16.37
2018-08-25T02:14:19.388Z,16.37
2018-08-25T02:14:59.829Z,16.36
2018-08-25T02:15:40.255Z,16.41
2018-08-25T02:16:20.680Z,16.5
2018-08-25T02:17:01.150Z,16.51
2018-08-25T02:17:41.485Z,16.48
2018-08-25T02:18:21.951Z,16.47
2018-08-25T02:19:02.276Z,16.5
2018-08-25T02:19:42.728Z,16.52
2018-08-25T02:20:23.165Z,16.5
2018-08-25T02:21:03.536Z,16.65
2018-08-25T02:21:43.820Z,16.6
2018-08-25T02:22:24.565Z,16.54
2018-08-25T02:23:04.736Z,16.6
2018-08-25T02:23:45.158Z,16.59
2018-08-25T02:24:25.828Z,16.62
2018-08-25T02:25:06.019Z,16.69
2018-08-25T02:25:46.454Z,16.78
2018-08-25T02:26:26.903Z,16.84
2018-08-25T02:27:07.818Z,16.91
2018-08-25T02:27:48.020Z,16.81
2018-08-25T02:28:28.721Z,16.91
2018-08-25T02:29:09.200Z,16.91
2018-08-25T02:29:49.609Z,17.03
2018-08-25T02:30:30.062Z,17.07
2018-08-25T02:31:10.415Z,17.14
2018-08-25T02:31:50.873Z,17.15
2018-08-25T02:32:31.246Z,17.1
2018-08-25T02:33:11.665Z,17.07
2018-08-25T02:33:52.136Z,17.14
2018-08-25T02:34:33.306Z,17.18
2018-08-25T02:35:13.769Z,17.3
2018-08-25T02:35:54.272Z,17.22
2018-08-25T02:36:34.668Z,17.36
2018-08-25T02:37:15.061Z,17.39
2018-08-25T02:37:55.720Z,17.45
2018-08-25T02:38:36.280Z,17.46
2018-08-25T02:39:16.657Z,17.54
2018-08-25T02:39:57.150Z,17.6
2018-08-25T02:40:37.620Z,17.57
2018-08-25T02:41:18.027Z,17.65
2018-08-25T02:41:58.473Z,17.76
2018-08-25T02:42:39.702Z,17.71
2018-08-25T02:43:20.061Z,17.68
2018-08-25T02:44:00.419Z,17.77
2018-08-25T02:44:41.908Z,17.81
2018-08-25T02:45:22.211Z,17.86
2018-08-25T02:46:02.637Z,17.91
2018-08-25T02:46:43.066Z,17.87
2018-08-25T02:47:23.448Z,17.91
2018-08-25T02:48:03.859Z,17.89
2018-08-25T02:48:44.387Z,17.8
2018-08-25T02:49:25.253Z,17.84
2018-08-25T02:50:05.471Z,17.77
2018-08-25T02:50:46.068Z,17.84
2018-08-25T02:51:26.514Z,17.71
2018-08-25T02:53:06.600Z,17.65
2018-08-25T02:53:47.470Z,17.7
2018-08-25T02:54:27.895Z,17.51
2018-08-25T02:55:08.431Z,17.49
2018-08-25T02:55:49.450Z,17.38
2018-08-25T02:56:29.962Z,17.43
2018-08-25T02:57:10.760Z,17.45
2018-08-25T02:57:51.041Z,17.51
2018-08-25T02:58:31.743Z,17.47
2018-08-25T02:59:12.159Z,17.51
2018-08-25T02:59:53.373Z,17.55
2018-08-25T03:00:33.836Z,17.55
2018-08-25T03:02:26.393Z,17.53
2018-08-25T03:03:05.840Z,17.51
2018-08-25T03:03:46.410Z,17.58
2018-08-25T03:04:26.948Z,17.66
2018-08-25T03:05:07.651Z,17.62
2018-08-25T03:05:48.083Z,17.63
2018-08-25T03:06:28.454Z,17.63
2018-08-25T03:11:14.323Z,17.66
2018-08-25T03:11:53.921Z,17.57
2018-08-25T03:12:34.324Z,17.55
2018-08-25T03:13:14.874Z,17.55
2018-08-25T03:13:55.397Z,17.54
2018-08-25T03:14:36.030Z,17.63
2018-08-25T03:15:16.756Z,17.6
2018-08-25T03:15:57.537Z,17.57
2018-08-25T03:16:38.009Z,17.6
2018-08-25T03:17:18.352Z,17.55
2018-08-25T03:17:58.811Z,17.63
2018-08-25T03:18:39.366Z,17.54
2018-08-25T03:19:19.791Z,17.58
2018-08-25T03:20:01.457Z,17.57
2018-08-25T03:20:41.922Z,17.55
2018-08-25T03:21:22.569Z,17.58
2018-08-25T03:22:03.168Z,17.7
2018-08-25T03:22:43.643Z,17.51
2018-08-25T03:23:24.119Z,17.43
2018-08-25T03:24:04.620Z,17.47
2018-08-25T03:24:45.013Z,17.47
2018-08-25T03:25:25.547Z,17.54
2018-08-25T03:26:05.916Z,17.58
2018-08-25T03:26:46.350Z,17.55
2018-08-25T03:27:26.923Z,17.6
2018-08-25T03:28:07.324Z,17.53
2018-08-25T03:28:47.771Z,17.53
2018-08-25T03:29:28.918Z,17.6
2018-08-25T03:30:09.526Z,17.63
2018-08-25T03:30:50.093Z,17.49
2018-08-25T03:31:30.359Z,17.53
2018-08-25T03:32:11.021Z,17.58
2018-08-25T03:32:51.172Z,17.54
2018-08-25T03:33:32.123Z,17.49
2018-08-25T03:34:12.470Z,17.62
2018-08-25T03:34:52.975Z,17.62
2018-08-25T03:35:33.532Z,17.54
2018-08-25T03:36:13.996Z,17.54
2018-08-25T03:36:55.481Z,17.55
2018-08-25T03:37:38.170Z,17.55
2018-08-25T03:38:18.868Z,17.54
2018-08-25T03:38:59.303Z,17.49
2018-08-25T03:39:39.737Z,17.53
2018-08-25T03:40:20.344Z,17.49
2018-08-25T03:41:00.709Z,17.43
2018-08-25T03:41:41.148Z,17.51
2018-08-25T03:42:21.821Z,17.49
2018-08-25T03:43:02.269Z,17.47
2018-08-25T03:43:42.831Z,17.46
2018-08-25T03:44:24.133Z,17.45
2018-08-25T03:45:04.530Z,17.42
2018-08-25T03:45:44.912Z,17.36
2018-08-25T03:46:25.380Z,17.32
2018-08-25T03:47:05.815Z,17.38
2018-08-25T03:47:46.421Z,17.33
2018-08-25T03:48:26.782Z,17.36
2018-08-25T03:49:07.948Z,17.39
2018-08-25T03:49:48.300Z,17.36
2018-08-25T03:50:30.101Z,17.4
2018-08-25T03:51:10.904Z,17.33
2018-08-25T03:51:51.541Z,17.35
2018-08-25T03:52:31.959Z,17.27
2018-08-25T03:53:12.758Z,17.25
2018-08-25T03:53:53.252Z,17.27
2018-08-25T03:54:35.413Z,17.24
2018-08-25T03:55:16.200Z,17.25
2018-08-25T03:55:57.417Z,17.28
2018-08-25T03:56:37.773Z,17.35
2018-08-25T03:57:18.252Z,17.36
2018-08-25T03:57:59.059Z,17.36
2018-08-25T03:58:39.338Z,17.32
2018-08-25T03:59:19.673Z,17.24
2018-08-25T04:00:00.283Z,17.28
2018-08-25T04:00:40.631Z,17.28
2018-08-25T04:01:21.264Z,17.3
2018-08-25T04:02:01.613Z,17.33
2018-08-25T04:02:41.968Z,17.35
2018-08-25T04:03:22.471Z,17.33
2018-08-25T04:04:02.913Z,17.4
2018-08-25T04:04:43.426Z,17.33
2018-08-25T04:05:24.916Z,17.15
2018-08-25T04:06:05.376Z,17.15
2018-08-25T04:06:45.785Z,17.15
2018-08-25T04:07:26.222Z,17.17
2018-08-25T04:08:06.670Z,16.96
2018-08-25T04:08:47.066Z,16.84
2018-08-25T04:09:27.469Z,16.72
2018-08-25T04:10:07.971Z,16.51
2018-08-25T04:10:48.372Z,16.47
2018-08-25T04:11:28.786Z,16.48
2018-08-25T04:12:09.296Z,16.3
2018-08-25T04:12:49.974Z,16.06
2018-08-25T04:13:30.477Z,15.92
2018-08-25T04:14:10.849Z,15.85
2018-08-25T04:14:51.947Z,15.73
2018-08-25T04:15:31.886Z,15.68
2018-08-25T04:16:12.292Z,15.62
2018-08-25T04:16:53.130Z,15.66
2018-08-25T04:17:34.044Z,15.52
2018-08-25T04:18:16.122Z,15.53
2018-08-25T04:18:57.175Z,15.41
2018-08-25T04:19:37.374Z,15.31
2018-08-25T04:20:17.827Z,15.43
2018-08-25T04:20:58.284Z,15.31
2018-08-25T04:21:38.860Z,15.25
2018-08-25T04:22:20.140Z,15.13
2018-08-25T04:23:00.733Z,15.07
2018-08-25T04:23:41.546Z,14.93
2018-08-25T04:24:22.183Z,14.78
2018-08-25T04:25:03.247Z,14.82
2018-08-25T04:25:43.915Z,14.72
2018-08-25T04:26:24.844Z,14.74
2018-08-25T04:27:05.816Z,14.61
2018-08-25T05:14:49.932Z,14.19
2018-08-25T05:15:29.059Z,14.16
2018-08-25T05:16:09.496Z,14.19
2018-08-25T05:16:49.860Z,14.24
2018-08-25T05:17:31.242Z,14.26
2018-08-25T05:18:11.651Z,14.31
2018-08-25T05:18:52.017Z,14.38
2018-08-25T05:19:32.451Z,14.41
2018-08-25T05:20:12.896Z,14.46
2018-08-25T05:20:53.247Z,14.48
2018-08-25T05:21:33.646Z,14.44
2018-08-25T05:22:14.348Z,14.42
2018-08-25T05:22:55.906Z,14.53
2018-08-25T05:23:36.162Z,14.59
2018-08-25T05:24:16.589Z,14.64
2018-08-25T05:24:57.729Z,14.72
2018-08-25T05:25:38.184Z,14.79
2018-08-25T05:26:18.575Z,14.79
2018-08-25T05:26:59.749Z,14.83
2018-08-25T05:27:40.133Z,14.87
2018-08-25T05:29:27.510Z,14.79
2018-08-25T05:30:10.290Z,14.86
2018-08-25T05:30:50.960Z,14.82
2018-08-25T05:31:31.247Z,14.9
2018-08-25T05:32:11.598Z,14.82
2018-08-25T05:32:52.024Z,15
2018-08-25T05:33:32.389Z,15.13
2018-08-25T05:34:12.932Z,15.18
2018-08-25T05:34:53.346Z,15.22
2018-08-25T05:35:33.733Z,15.15
2018-08-25T05:36:14.118Z,15.2
2018-08-25T05:36:54.737Z,15.22
2018-08-25T05:37:35.080Z,15.28
2018-08-25T05:38:15.471Z,15.34
2018-08-25T05:38:55.901Z,15.38
2018-08-25T05:39:36.378Z,15.41
2018-08-25T05:40:16.830Z,15.46
2018-08-25T05:40:57.355Z,15.46
2018-08-25T05:41:37.970Z,15.56
2018-08-25T05:42:18.407Z,15.58
2018-08-25T05:42:58.731Z,15.43
2018-08-25T05:43:39.109Z,15.46
2018-08-25T05:44:19.668Z,15.41
2018-08-25T05:44:59.984Z,15.44
2018-08-25T05:45:40.468Z,15.37
2018-08-25T05:46:20.817Z,15.37
2018-08-25T05:47:01.288Z,15.52
2018-08-25T05:47:41.662Z,15.51
2018-08-25T05:48:22.045Z,15.6
2018-08-25T05:49:02.478Z,15.52
2018-08-25T05:49:42.943Z,15.49
2018-08-25T05:50:23.263Z,15.46
2018-08-25T05:51:03.703Z,15.38
2018-08-25T05:51:44.109Z,15.38
2018-08-25T05:52:24.513Z,15.38
2018-08-25T05:53:04.937Z,15.38
2018-08-25T05:53:45.387Z,15.44
2018-08-25T05:54:25.775Z,15.41
2018-08-25T05:55:06.239Z,15.41
2018-08-25T05:55:46.649Z,15.48
2018-08-25T05:56:27.079Z,15.43
2018-08-25T05:57:07.533Z,15.46
2018-08-25T05:57:48.044Z,15.49
2018-08-25T05:58:31.127Z,15.56
2018-08-25T05:59:11.588Z,15.62
2018-08-25T05:59:51.911Z,15.59
2018-08-25T06:00:32.523Z,15.6
2018-08-25T06:01:12.909Z,15.46
2018-08-25T06:01:53.559Z,15.49
2018-08-25T06:02:33.948Z,15.34
2018-08-25T06:03:14.549Z,15.3
2018-08-25T06:03:54.975Z,15.4
2018-08-25T06:04:35.356Z,15.34
2018-08-25T06:05:15.777Z,15.41
2018-08-25T06:05:56.215Z,15.44
2018-08-25T06:06:36.658Z,15.38
2018-08-25T06:07:17.011Z,15.43
2018-08-25T06:07:57.512Z,15.41
2018-08-25T06:08:37.846Z,15.4
2018-08-25T06:09:18.182Z,15.38
2018-08-25T06:09:58.598Z,15.41
2018-08-25T06:10:38.975Z,15.34
2018-08-25T06:11:19.413Z,15.66
2018-08-25T06:11:59.815Z,15.85
2018-08-25T06:12:40.204Z,15.99
2018-08-25T06:13:20.700Z,16.07
2018-08-25T06:14:01.169Z,16.37
2018-08-25T06:14:41.606Z,16.55
2018-08-25T06:15:21.941Z,16.84
2018-08-25T06:16:02.324Z,16.96
2018-08-25T06:16:43.903Z,17.09
2018-08-25T06:17:23.406Z,17.28
2018-08-25T06:18:04.205Z,17.42
2018-08-25T06:18:44.927Z,17.47
2018-08-25T06:19:25.647Z,17.65
2018-08-25T06:20:05.784Z,17.53
2018-08-25T06:20:46.237Z,17.7
2018-08-25T06:21:26.660Z,17.81
2018-08-25T06:22:07.212Z,17.91
2018-08-25T06:22:47.662Z,18.04
2018-08-25T06:23:28.054Z,18.13
2018-08-25T06:24:08.514Z,18.14
2018-08-25T06:24:49.013Z,18.09
2018-08-25T06:25:29.539Z,18.01
2018-08-25T06:26:09.917Z,18.01
2018-08-25T06:26:50.273Z,17.95
2018-08-25T06:27:30.954Z,18.19
2018-08-25T06:28:12.119Z,18.29
2018-08-25T06:28:52.324Z,18.28
2018-08-25T06:29:32.776Z,18.13
2018-08-25T06:30:13.292Z,17.91
2018-08-25T06:30:53.646Z,17.62
2018-08-25T06:31:34.059Z,17.6
2018-08-25T06:32:14.788Z,17.4
2018-08-25T06:32:55.443Z,17.35
2018-08-25T06:33:35.899Z,17.25
2018-08-25T06:34:16.437Z,17.25
2018-08-25T06:34:56.977Z,17.28
2018-08-25T06:35:37.848Z,17.14
2018-08-25T06:36:18.415Z,17.09
2018-08-25T06:36:58.775Z,17.06
2018-08-25T06:37:39.454Z,16.99
2018-08-25T06:38:19.727Z,16.88
2018-08-25T06:39:00.131Z,16.78
2018-08-25T06:39:40.648Z,16.77
2018-08-25T06:40:22.090Z,16.8
2018-08-25T06:41:03.276Z,16.96
2018-08-25T06:41:43.783Z,17.1
2018-08-25T06:42:24.357Z,17.25
2018-08-25T06:43:05.075Z,17.4
2018-08-25T06:43:45.475Z,17.63
2018-08-25T06:44:26.174Z,17.68
2018-08-25T06:46:26.710Z,17.55
2018-08-25T06:47:20.570Z,17.6
2018-08-25T06:48:13.077Z,17.54
2018-08-25T06:49:10.158Z,17.47
2018-08-25T06:50:08.236Z,17.51
2018-08-25T06:51:07.226Z,17.51
2018-08-25T06:53:03.774Z,17.33
2018-08-25T06:53:59.104Z,17.12
2018-08-25T06:54:52.592Z,17.17
2018-08-25T06:55:45.840Z,17.15
2018-08-25T06:56:39.325Z,16.96
2018-08-25T06:57:31.627Z,16.98
2018-08-25T06:58:26.228Z,17.05
2018-08-25T06:59:19.249Z,17.14
2018-08-25T07:00:12.260Z,17.39
2018-08-25T07:01:04.695Z,17.57
2018-08-25T07:01:57.265Z,17.6
2018-08-25T07:03:59.234Z,17.94
2018-08-25T07:04:57.412Z,18.07
2018-08-25T07:05:58.635Z,18.34
2018-08-25T07:06:54.697Z,18.49
2018-08-25T07:07:51.233Z,18.62
2018-08-25T07:08:47.480Z,18.86
2018-08-25T07:09:48.159Z,19.06
2018-08-25T07:10:43.690Z,19.23
2018-08-25T07:11:41.984Z,19.46
2018-08-25T07:12:37.524Z,19.6
2018-08-25T07:13:30.507Z,19.64
2018-08-25T07:14:26.937Z,19.68
2018-08-25T07:15:24.293Z,19.75
2018-08-25T07:16:18.475Z,19.78
2018-08-25T07:17:12.188Z,20.01
2018-08-25T07:17:57.992Z,20.07
2018-08-25T07:18:38.566Z,20.1
2018-08-25T07:19:18.944Z,20.13
2018-08-25T07:20:02.565Z,20.08
2018-08-25T07:20:48.881Z,19.86
2018-08-25T07:21:31.668Z,19.76
2018-08-25T07:22:13.191Z,19.62
2018-08-25T07:22:54.335Z,19.42
2018-08-25T07:23:37.881Z,19.52
2018-08-25T07:24:25.447Z,19.38
2018-08-25T07:25:05.758Z,19.23
2018-08-25T07:25:46.276Z,19.28
2018-08-25T07:26:26.575Z,19.27
2018-08-25T07:27:07.063Z,19.2
2018-08-25T07:27:47.566Z,19.09
2018-08-25T07:28:27.926Z,19.1
2018-08-25T07:29:08.390Z,19.1
2018-08-25T07:29:48.806Z,19.06
2018-08-25T07:30:29.135Z,19.05
2018-08-25T07:31:09.535Z,19.05
2018-08-25T07:31:49.974Z,18.94
2018-08-25T07:32:30.477Z,19.05
2018-08-25T07:33:10.877Z,18.99
2018-08-25T07:33:51.272Z,18.86
2018-08-25T07:34:33.004Z,18.94
2018-08-25T07:35:17.614Z,18.78
2018-08-25T07:36:03.735Z,18.57
2018-08-25T07:36:44.936Z,18.65
2018-08-25T07:37:27.129Z,18.6
2018-08-25T07:38:08.511Z,18.59
2018-08-25T07:38:49.159Z,18.6
2018-08-25T07:39:35.864Z,18.76
2018-08-25T07:41:19.375Z,18.99
2018-08-25T07:42:13.973Z,19.07
2018-08-25T07:43:07.411Z,19.31
2018-08-25T07:44:02.671Z,19.62
2018-08-25T07:44:56.000Z,19.83
2018-08-25T07:45:52.565Z,20.07
2018-08-25T07:46:45.083Z,20.3
2018-08-25T07:47:40.610Z,20.19
2018-08-25T07:48:35.251Z,20.08
2018-08-25T07:49:30.679Z,20.04
2018-08-25T07:50:28.895Z,20.08
2018-08-25T07:51:23.267Z,19.9
2018-08-25T07:52:16.072Z,19.79
2018-08-25T07:54:11.986Z,19.52
2018-08-25T07:55:10.568Z,19.45
2018-08-25T07:56:09.409Z,19.1
2018-08-25T07:57:06.432Z,19.1
2018-08-25T07:58:02.078Z,19.39
2018-08-25T07:58:54.802Z,19.46
2018-08-25T07:59:48.891Z,19.67
2018-08-25T08:00:43.738Z,19.62
2018-08-25T08:01:37.355Z,19.58
2018-08-25T08:02:21.527Z,19.53
2018-08-25T08:03:01.965Z,19.6
2018-08-25T08:03:42.420Z,19.46
2018-08-25T08:04:22.856Z,19.47
2018-08-25T08:05:03.230Z,19.25
2018-08-25T08:05:43.715Z,19.27
2018-08-25T08:06:24.018Z,19.1
2018-08-25T08:07:04.415Z,18.82
2018-08-25T08:07:44.833Z,18.79
2018-08-25T08:08:25.353Z,18.71
2018-08-25T08:09:05.793Z,18.72
2018-08-25T08:09:46.173Z,18.62
2018-08-25T08:10:26.626Z,18.65
2018-08-25T08:11:07.050Z,18.65
2018-08-25T08:11:47.352Z,18.59
2018-08-25T08:12:27.753Z,18.65
2018-08-25T08:13:08.122Z,18.74
2018-08-25T08:13:48.596Z,18.74
2018-08-25T08:14:29.036Z,18.62
2018-08-25T08:15:09.467Z,18.46
2018-08-25T08:15:49.899Z,18.35
2018-08-25T08:16:30.285Z,18.38
2018-08-25T08:17:10.683Z,18.31
2018-08-25T08:17:51.107Z,18.38
2018-08-25T08:18:31.482Z,18.36
2018-08-25T08:19:11.918Z,18.34
2018-08-25T08:19:52.286Z,18.34
2018-08-25T08:20:32.701Z,18.29
2018-08-25T08:21:13.178Z,18.42
2018-08-25T08:21:53.585Z,18.46
2018-08-25T08:22:33.970Z,18.46
2018-08-25T08:23:14.370Z,18.6
2018-08-25T08:23:54.757Z,18.78
2018-08-25T08:24:35.159Z,18.9
2018-08-25T08:25:15.520Z,19.05
2018-08-25T08:25:55.995Z,19.07
2018-08-25T08:26:36.479Z,19.28
2018-08-25T08:27:16.847Z,19.47
2018-08-25T08:27:57.214Z,19.64
2018-08-25T08:28:37.676Z,19.68
2018-08-25T08:29:18.062Z,19.97
2018-08-25T08:29:58.417Z,20.08
2018-08-25T08:30:38.899Z,20.33
2018-08-25T08:31:19.272Z,20.48
2018-08-25T08:31:59.746Z,20.64
2018-08-25T08:32:40.419Z,20.73
2018-08-25T08:33:20.835Z,20.79
2018-08-25T08:34:01.172Z,20.69
2018-08-25T08:34:41.605Z,20.61
2018-08-25T08:35:22.003Z,20.64
2018-08-25T08:36:02.421Z,20.46
2018-08-25T08:36:42.846Z,20.31
2018-08-25T08:37:23.294Z,20.25
2018-08-25T08:38:04.075Z,20.33
2018-08-25T08:38:44.473Z,20.33
2018-08-25T08:39:25.035Z,20.34
2018-08-25T08:40:05.670Z,20.35
2018-08-25T08:40:45.898Z,20.42
2018-08-25T08:41:26.362Z,20.64
2018-08-25T08:42:06.776Z,20.85
2018-08-25T08:42:47.137Z,21.03
2018-08-25T08:43:27.601Z,21.22
2018-08-25T08:44:07.890Z,21.24
2018-08-25T08:44:48.592Z,21.22
2018-08-25T08:45:28.998Z,21.33
2018-08-25T08:46:09.346Z,21.48
2018-08-25T08:46:49.863Z,21.53
2018-08-25T08:48:40.493Z,21.37
2018-08-25T08:49:31.356Z,21.26
2018-08-25T08:50:11.782Z,21.16
2018-08-25T08:50:52.207Z,21.22
2018-08-25T08:51:32.712Z,21.19
2018-08-25T08:52:13.081Z,21.34
2018-08-25T08:52:53.509Z,21.43
2018-08-25T08:53:33.970Z,21.68
2018-08-25T08:54:14.439Z,21.75
2018-08-25T08:54:54.815Z,21.91
2018-08-25T08:55:35.396Z,22.09
2018-08-25T08:56:18.269Z,22.2
2018-08-25T08:56:59.649Z,22.35
2018-08-25T08:57:41.078Z,22.39
2018-08-25T08:58:21.533Z,22.54
2018-08-25T08:59:02.122Z,22.6
2018-08-25T08:59:44.423Z,22.72
2018-08-25T09:00:29.984Z,22.91
2018-08-25T09:01:11.394Z,23.03
2018-08-25T09:01:53.343Z,23.15
2018-08-25T09:02:34.961Z,23.04
2018-08-25T09:03:17.395Z,22.94
2018-08-25T09:04:00.671Z,22.85
2018-08-25T09:04:42.095Z,22.97
2018-08-25T09:05:25.276Z,22.94
2018-08-25T09:06:07.849Z,23.07
2018-08-25T09:06:49.534Z,23.21
2018-08-25T09:07:34.159Z,23.11
2018-08-25T09:08:16.068Z,22.93
2018-08-25T09:10:14.833Z,22.82
2018-08-25T09:11:10.846Z,22.76
2018-08-25T09:13:03.512Z,22.29
2018-08-25T09:14:00.860Z,22.11
2018-08-25T09:14:55.761Z,22.26
2018-08-25T09:15:53.025Z,22.2
2018-08-25T09:16:47.019Z,22.41
2018-08-25T09:17:44.491Z,22.56
2018-08-25T09:18:38.809Z,22.84
2018-08-25T09:19:34.408Z,23
2018-08-25T09:20:28.826Z,23.19
2018-08-25T09:21:23.245Z,23.38
2018-08-25T09:22:19.333Z,23.34
2018-08-25T09:26:30.982Z,22.97
2018-08-25T09:27:27.320Z,23.06
2018-08-25T09:28:21.321Z,23.15
2018-08-25T09:29:16.912Z,22.93
2018-08-25T09:30:13.605Z,22.93
2018-08-25T09:31:08.568Z,22.76
2018-08-25T09:32:03.609Z,22.82
2018-08-25T09:32:58.540Z,22.93
2018-08-25T09:33:58.620Z,23.07
2018-08-25T09:35:01.859Z,23
2018-08-25T09:35:55.252Z,23.07
2018-08-25T09:36:59.052Z,23.35
2018-08-25T09:38:05.339Z,23.56
2018-08-25T09:39:07.779Z,23.78
2018-08-25T09:44:15.781Z,23.35
2018-08-25T09:45:10.399Z,23.52
2018-08-25T09:46:04.891Z,23.41
2018-08-25T09:46:59.180Z,23.38
2018-08-25T09:47:55.341Z,23.14
2018-08-25T09:48:55.857Z,23.14
2018-08-25T09:49:52.197Z,23.07
2018-08-25T09:50:47.050Z,23.19
2018-08-25T09:51:43.370Z,23.35
2018-08-25T09:52:44.781Z,23.45
2018-08-25T09:53:42.036Z,23.52
2018-08-25T09:54:36.473Z,23.68
2018-08-25T09:55:35.079Z,23.75
2018-08-25T09:56:32.796Z,23.64
2018-08-25T09:57:29.360Z,23.92
2018-08-25T09:58:25.980Z,23.92
2018-08-25T09:59:25.708Z,23.86
2018-08-25T10:00:24.869Z,23.68
2018-08-25T10:01:34.041Z,23.74
2018-08-25T10:02:30.886Z,23.72
2018-08-25T10:03:23.083Z,23.67
2018-08-25T10:04:17.779Z,23.68
2018-08-25T10:05:14.290Z,23.68
2018-08-25T10:06:12.148Z,23.63
2018-08-25T10:07:06.697Z,23.68
2018-08-25T10:07:59.702Z,23.79
2018-08-25T10:08:44.507Z,23.86
2018-08-25T10:09:28.471Z,23.87
2018-08-25T10:11:52.538Z,23.94
2018-08-25T10:12:49.346Z,24.14
2018-08-25T10:13:43.497Z,24.19
2018-08-25T10:14:38.404Z,24.37
2018-08-25T10:15:31.863Z,24.56
2018-08-25T10:16:31.464Z,24.67
2018-08-25T10:17:25.912Z,24.74
2018-08-25T10:18:24.000Z,24.97
2018-08-25T10:19:19.687Z,25.07
2018-08-25T10:20:13.827Z,25.14
2018-08-25T10:21:09.352Z,25.24
2018-08-25T10:22:06.916Z,25.09
2018-08-25T10:23:02.755Z,25.24
2018-08-25T10:23:56.732Z,25.41
2018-08-25T10:24:53.758Z,25.45
2018-08-25T10:25:58.490Z,25.48
2018-08-25T10:26:53.716Z,25.48
2018-08-25T10:27:55.261Z,25.31
2018-08-25T10:28:48.334Z,25.36
2018-08-25T11:06:51.695Z,20.82
2018-08-25T11:07:31.065Z,20.83
2018-08-25T11:08:12.074Z,20.96
2018-08-25T11:08:54.104Z,21.05
2018-08-25T11:09:35.295Z,21.16
2018-08-25T11:10:16.382Z,21.18
2018-08-25T11:10:57.945Z,21.26
2018-08-25T11:11:38.322Z,21.28
2018-08-25T11:12:18.990Z,21.33
2018-08-25T11:13:00.220Z,21.7
2018-08-25T11:13:40.843Z,21.9
2018-08-25T11:14:21.280Z,22.02
2018-08-25T11:15:01.665Z,22.11
2018-08-25T11:15:42.608Z,22.33
2018-08-25T11:18:07.798Z,22.76
2018-08-25T11:20:14.240Z,22.74
2018-08-25T11:21:06.591Z,22.82
2018-08-25T11:22:47.681Z,23.23
2018-08-25T11:23:32.680Z,23.32